sensor_id;sensor_type;location;lat;lon;timestamp;P1;durP1;ratioP1;P2;durP2;ratioP2
52798;SDS011;38667;42.872;74.622;2022-07-21T00:00:44;10.20;;;3.45;;
52798;SDS011;38667;42.872;74.622;2022-07-21T00:03:10;12.85;;;4.75;;
52798;SDS011;38667;42.872;74.622;2022-07-21T00:05:37;14.27;;;4.47;;
52798;SDS011;38667;42.872;74.622;2022-07-21T00:08:03;16.52;;;5.60;;
52798;SDS011;38667;42.872;74.622;2022-07-21T00:10:30;15.25;;;5.22;;
52798;SDS011;38667;42.872;74.622;2022-07-21T00:12:56;12.32;;;5.38;;
52798;SDS011;38667;42.872;74.622;2022-07-21T00:15:24;25.13;;;10.45;;
52798;SDS011;38667;42.872;74.622;2022-07-21T00:17:52;23.60;;;10.68;;
52798;SDS011;38667;42.872;74.622;2022-07-21T00:20:19;32.05;;;13.40;;
52798;SDS011;38667;42.872;74.622;2022-07-21T00:22:46;31.73;;;15.10;;
52798;SDS011;38667;42.872;74.622;2022-07-21T00:25:13;27.60;;;13.70;;
52798;SDS011;38667;42.872;74.622;2022-07-21T00:27:40;32.42;;;15.63;;
52798;SDS011;38667;42.872;74.622;2022-07-21T00:30:07;35.92;;;16.58;;
52798;SDS011;38667;42.872;74.622;2022-07-21T00:32:36;37.42;;;18.00;;
52798;SDS011;38667;42.872;74.622;2022-07-21T00:35:03;45.25;;;21.67;;
52798;SDS011;38667;42.872;74.622;2022-07-21T00:37:31;47.08;;;23.10;;
52798;SDS011;38667;42.872;74.622;2022-07-21T00:39:57;48.80;;;23.55;;
52798;SDS011;38667;42.872;74.622;2022-07-21T00:42:24;48.50;;;23.17;;
52798;SDS011;38667;42.872;74.622;2022-07-21T00:44:51;40.97;;;19.50;;
52798;SDS011;38667;42.872;74.622;2022-07-21T00:47:18;43.15;;;18.95;;
52798;SDS011;38667;42.872;74.622;2022-07-21T00:49:46;40.55;;;16.83;;
52798;SDS011;38667;42.872;74.622;2022-07-21T00:52:13;31.15;;;14.20;;
52798;SDS011;38667;42.872;74.622;2022-07-21T00:54:39;34.92;;;14.35;;
52798;SDS011;38667;42.872;74.622;2022-07-21T00:57:05;31.20;;;12.30;;
52798;SDS011;38667;42.872;74.622;2022-07-21T00:59:32;24.27;;;10.90;;
52798;SDS011;38667;42.872;74.622;2022-07-21T01:01:58;29.40;;;11.10;;
52798;SDS011;38667;42.872;74.622;2022-07-21T01:04:25;20.65;;;10.50;;
52798;SDS011;38667;42.872;74.622;2022-07-21T01:06:53;19.70;;;7.93;;
52798;SDS011;38667;42.872;74.622;2022-07-21T01:09:19;32.55;;;6.30;;
52798;SDS011;38667;42.872;74.622;2022-07-21T01:11:46;17.92;;;6.32;;
52798;SDS011;38667;42.872;74.622;2022-07-21T01:14:13;20.50;;;6.30;;
52798;SDS011;38667;42.872;74.622;2022-07-21T01:16:39;15.98;;;6.50;;
52798;SDS011;38667;42.872;74.622;2022-07-21T01:19:06;14.32;;;5.28;;
52798;SDS011;38667;42.872;74.622;2022-07-21T01:21:34;19.10;;;5.68;;
52798;SDS011;38667;42.872;74.622;2022-07-21T01:24:02;15.13;;;5.45;;
52798;SDS011;38667;42.872;74.622;2022-07-21T01:26:30;13.27;;;5.20;;
52798;SDS011;38667;42.872;74.622;2022-07-21T01:28:57;11.43;;;4.60;;
52798;SDS011;38667;42.872;74.622;2022-07-21T01:31:23;16.20;;;4.88;;
52798;SDS011;38667;42.872;74.622;2022-07-21T01:33:50;16.67;;;5.00;;
52798;SDS011;38667;42.872;74.622;2022-07-21T01:36:17;14.73;;;4.88;;
52798;SDS011;38667;42.872;74.622;2022-07-21T01:38:45;15.82;;;5.03;;
52798;SDS011;38667;42.872;74.622;2022-07-21T01:41:11;8.80;;;3.95;;
52798;SDS011;38667;42.872;74.622;2022-07-21T01:43:37;15.63;;;4.40;;
52798;SDS011;38667;42.872;74.622;2022-07-21T01:46:04;12.60;;;4.03;;
52798;SDS011;38667;42.872;74.622;2022-07-21T01:48:30;11.27;;;3.83;;
52798;SDS011;38667;42.872;74.622;2022-07-21T01:50:57;12.80;;;4.78;;
52798;SDS011;38667;42.872;74.622;2022-07-21T01:53:23;12.13;;;5.90;;
52798;SDS011;38667;42.872;74.622;2022-07-21T01:55:51;12.52;;;5.00;;
52798;SDS011;38667;42.872;74.622;2022-07-21T01:58:17;13.68;;;4.97;;
52798;SDS011;38667;42.872;74.622;2022-07-21T02:00:43;10.13;;;5.05;;
52798;SDS011;38667;42.872;74.622;2022-07-21T02:03:10;9.15;;;4.07;;
52798;SDS011;38667;42.872;74.622;2022-07-21T02:05:36;7.88;;;4.05;;
52798;SDS011;38667;42.872;74.622;2022-07-21T02:08:03;12.77;;;4.18;;
52798;SDS011;38667;42.872;74.622;2022-07-21T02:10:29;8.85;;;3.72;;
52798;SDS011;38667;42.872;74.622;2022-07-21T02:12:57;13.23;;;3.95;;
52798;SDS011;38667;42.872;74.622;2022-07-21T02:15:23;12.63;;;4.68;;
52798;SDS011;38667;42.872;74.622;2022-07-21T02:17:49;11.40;;;4.93;;
52798;SDS011;38667;42.872;74.622;2022-07-21T02:20:16;21.63;;;6.65;;
52798;SDS011;38667;42.872;74.622;2022-07-21T02:22:42;23.80;;;8.15;;
52798;SDS011;38667;42.872;74.622;2022-07-21T02:25:08;21.10;;;7.82;;
52798;SDS011;38667;42.872;74.622;2022-07-21T02:27:35;21.23;;;7.65;;
52798;SDS011;38667;42.872;74.622;2022-07-21T02:30:03;21.50;;;7.85;;
52798;SDS011;38667;42.872;74.622;2022-07-21T02:32:30;25.80;;;7.57;;
52798;SDS011;38667;42.872;74.622;2022-07-21T02:34:56;18.98;;;6.85;;
52798;SDS011;38667;42.872;74.622;2022-07-21T02:37:22;30.85;;;7.75;;
52798;SDS011;38667;42.872;74.622;2022-07-21T02:39:49;22.77;;;7.30;;
52798;SDS011;38667;42.872;74.622;2022-07-21T02:42:15;22.98;;;6.75;;
52798;SDS011;38667;42.872;74.622;2022-07-21T02:44:41;22.52;;;7.60;;
52798;SDS011;38667;42.872;74.622;2022-07-21T02:47:09;19.00;;;7.07;;
52798;SDS011;38667;42.872;74.622;2022-07-21T02:49:35;19.83;;;8.23;;
52798;SDS011;38667;42.872;74.622;2022-07-21T02:52:02;28.33;;;8.13;;
52798;SDS011;38667;42.872;74.622;2022-07-21T02:54:28;22.83;;;7.88;;
52798;SDS011;38667;42.872;74.622;2022-07-21T02:56:55;21.90;;;7.32;;
52798;SDS011;38667;42.872;74.622;2022-07-21T02:59:21;21.73;;;6.85;;
52798;SDS011;38667;42.872;74.622;2022-07-21T03:01:47;17.48;;;7.15;;
52798;SDS011;38667;42.872;74.622;2022-07-21T03:04:15;21.20;;;6.63;;
52798;SDS011;38667;42.872;74.622;2022-07-21T03:06:41;22.60;;;6.95;;
52798;SDS011;38667;42.872;74.622;2022-07-21T03:09:08;17.00;;;6.05;;
52798;SDS011;38667;42.872;74.622;2022-07-21T03:11:34;18.35;;;6.43;;
52798;SDS011;38667;42.872;74.622;2022-07-21T03:14:00;23.98;;;7.05;;
52798;SDS011;38667;42.872;74.622;2022-07-21T03:16:27;21.08;;;6.88;;
52798;SDS011;38667;42.872;74.622;2022-07-21T03:18:53;21.23;;;7.25;;
52798;SDS011;38667;42.872;74.622;2022-07-21T03:21:21;23.98;;;6.72;;
52798;SDS011;38667;42.872;74.622;2022-07-21T03:23:47;16.27;;;5.82;;
52798;SDS011;38667;42.872;74.622;2022-07-21T03:26:14;10.60;;;4.75;;
52798;SDS011;38667;42.872;74.622;2022-07-21T03:28:41;18.05;;;5.97;;
52798;SDS011;38667;42.872;74.622;2022-07-21T03:31:08;23.95;;;6.82;;
52798;SDS011;38667;42.872;74.622;2022-07-21T03:33:34;12.60;;;6.82;;
52798;SDS011;38667;42.872;74.622;2022-07-21T03:36:01;12.45;;;5.97;;
52798;SDS011;38667;42.872;74.622;2022-07-21T03:38:29;13.27;;;5.95;;
52798;SDS011;38667;42.872;74.622;2022-07-21T03:40:55;17.83;;;6.78;;
52798;SDS011;38667;42.872;74.622;2022-07-21T03:43:21;17.08;;;6.15;;
52798;SDS011;38667;42.872;74.622;2022-07-21T03:45:48;14.55;;;5.15;;
52798;SDS011;38667;42.872;74.622;2022-07-21T03:48:14;15.18;;;4.78;;
52798;SDS011;38667;42.872;74.622;2022-07-21T03:50:41;12.30;;;4.60;;
52798;SDS011;38667;42.872;74.622;2022-07-21T03:53:07;9.65;;;4.53;;
52798;SDS011;38667;42.872;74.622;2022-07-21T03:55:36;12.63;;;4.43;;
52798;SDS011;38667;42.872;74.622;2022-07-21T03:58:03;14.63;;;5.35;;
52798;SDS011;38667;42.872;74.622;2022-07-21T04:00:31;14.77;;;5.15;;
52798;SDS011;38667;42.872;74.622;2022-07-21T04:03:00;11.90;;;4.90;;
52798;SDS011;38667;42.872;74.622;2022-07-21T04:05:26;9.55;;;4.50;;
52798;SDS011;38667;42.872;74.622;2022-07-21T04:07:53;9.75;;;4.65;;
52798;SDS011;38667;42.872;74.622;2022-07-21T04:10:21;9.07;;;3.90;;
52798;SDS011;38667;42.872;74.622;2022-07-21T04:12:49;11.88;;;3.88;;
52798;SDS011;38667;42.872;74.622;2022-07-21T04:15:16;11.57;;;4.43;;
52798;SDS011;38667;42.872;74.622;2022-07-21T04:17:43;9.88;;;3.95;;
52798;SDS011;38667;42.872;74.622;2022-07-21T04:20:10;12.82;;;4.28;;
52798;SDS011;38667;42.872;74.622;2022-07-21T04:22:37;10.32;;;3.90;;
52798;SDS011;38667;42.872;74.622;2022-07-21T04:25:04;13.68;;;3.63;;
52798;SDS011;38667;42.872;74.622;2022-07-21T04:27:31;8.60;;;3.20;;
52798;SDS011;38667;42.872;74.622;2022-07-21T04:29:59;7.32;;;3.85;;
52798;SDS011;38667;42.872;74.622;2022-07-21T04:32:26;7.03;;;3.63;;
52798;SDS011;38667;42.872;74.622;2022-07-21T04:34:54;6.40;;;3.25;;
52798;SDS011;38667;42.872;74.622;2022-07-21T04:37:20;6.65;;;3.53;;
52798;SDS011;38667;42.872;74.622;2022-07-21T04:39:46;8.52;;;2.92;;
52798;SDS011;38667;42.872;74.622;2022-07-21T04:42:13;6.32;;;2.90;;
52798;SDS011;38667;42.872;74.622;2022-07-21T04:44:39;7.78;;;3.15;;
52798;SDS011;38667;42.872;74.622;2022-07-21T04:47:07;7.95;;;3.60;;
52798;SDS011;38667;42.872;74.622;2022-07-21T04:49:34;8.40;;;3.30;;
52798;SDS011;38667;42.872;74.622;2022-07-21T04:52:00;8.43;;;3.50;;
52798;SDS011;38667;42.872;74.622;2022-07-21T04:54:26;7.45;;;3.28;;
52798;SDS011;38667;42.872;74.622;2022-07-21T04:56:53;10.32;;;3.78;;
52798;SDS011;38667;42.872;74.622;2022-07-21T04:59:19;11.35;;;4.57;;
52798;SDS011;38667;42.872;74.622;2022-07-21T05:01:45;11.63;;;3.70;;
52798;SDS011;38667;42.872;74.622;2022-07-21T05:04:13;12.73;;;4.05;;
52798;SDS011;38667;42.872;74.622;2022-07-21T05:06:39;10.45;;;4.07;;
52798;SDS011;38667;42.872;74.622;2022-07-21T05:09:06;12.27;;;4.03;;
52798;SDS011;38667;42.872;74.622;2022-07-21T05:11:32;11.95;;;4.40;;
52798;SDS011;38667;42.872;74.622;2022-07-21T05:13:58;13.88;;;3.67;;
52798;SDS011;38667;42.872;74.622;2022-07-21T05:16:25;11.15;;;3.65;;
52798;SDS011;38667;42.872;74.622;2022-07-21T05:18:51;14.90;;;3.33;;
52798;SDS011;38667;42.872;74.622;2022-07-21T05:21:19;12.68;;;4.50;;
52798;SDS011;38667;42.872;74.622;2022-07-21T05:23:45;18.55;;;4.90;;
52798;SDS011;38667;42.872;74.622;2022-07-21T05:26:11;19.55;;;8.75;;
52798;SDS011;38667;42.872;74.622;2022-07-21T05:28:38;15.05;;;7.57;;
52798;SDS011;38667;42.872;74.622;2022-07-21T05:31:04;26.00;;;10.80;;
52798;SDS011;38667;42.872;74.622;2022-07-21T05:33:31;33.63;;;13.30;;
52798;SDS011;38667;42.872;74.622;2022-07-21T05:35:57;28.30;;;13.48;;
52798;SDS011;38667;42.872;74.622;2022-07-21T05:38:25;19.98;;;11.95;;
52798;SDS011;38667;42.872;74.622;2022-07-21T05:40:51;18.85;;;9.50;;
52798;SDS011;38667;42.872;74.622;2022-07-21T05:43:17;17.40;;;8.35;;
52798;SDS011;38667;42.872;74.622;2022-07-21T05:45:43;22.25;;;10.65;;
52798;SDS011;38667;42.872;74.622;2022-07-21T05:48:10;12.50;;;6.00;;
52798;SDS011;38667;42.872;74.622;2022-07-21T05:50:36;16.10;;;6.38;;
52798;SDS011;38667;42.872;74.622;2022-07-21T05:53:02;10.68;;;5.43;;
52798;SDS011;38667;42.872;74.622;2022-07-21T05:55:30;17.00;;;4.18;;
52798;SDS011;38667;42.872;74.622;2022-07-21T05:57:56;7.95;;;4.30;;
52798;SDS011;38667;42.872;74.622;2022-07-21T06:00:23;6.97;;;3.85;;
52798;SDS011;38667;42.872;74.622;2022-07-21T06:02:49;8.43;;;3.55;;
52798;SDS011;38667;42.872;74.622;2022-07-21T06:05:15;10.00;;;3.38;;
52798;SDS011;38667;42.872;74.622;2022-07-21T06:07:42;11.45;;;3.08;;
52798;SDS011;38667;42.872;74.622;2022-07-21T06:10:08;8.63;;;2.85;;
52798;SDS011;38667;42.872;74.622;2022-07-21T06:12:36;8.40;;;2.72;;
52798;SDS011;38667;42.872;74.622;2022-07-21T06:15:03;5.03;;;3.25;;
52798;SDS011;38667;42.872;74.622;2022-07-21T06:17:30;4.40;;;2.50;;
52798;SDS011;38667;42.872;74.622;2022-07-21T06:19:56;9.02;;;3.45;;
52798;SDS011;38667;42.872;74.622;2022-07-21T06:22:23;4.45;;;2.72;;
52798;SDS011;38667;42.872;74.622;2022-07-21T06:24:49;10.30;;;3.42;;
52798;SDS011;38667;42.872;74.622;2022-07-21T06:27:15;6.07;;;3.15;;
52798;SDS011;38667;42.872;74.622;2022-07-21T06:29:43;4.70;;;3.00;;
52798;SDS011;38667;42.872;74.622;2022-07-21T06:32:09;6.00;;;2.55;;
52798;SDS011;38667;42.872;74.622;2022-07-21T06:34:36;8.27;;;2.63;;
52798;SDS011;38667;42.872;74.622;2022-07-21T06:37:02;6.80;;;2.70;;
52798;SDS011;38667;42.872;74.622;2022-07-21T06:39:28;5.22;;;2.35;;
52798;SDS011;38667;42.872;74.622;2022-07-21T06:41:54;7.18;;;2.78;;
52798;SDS011;38667;42.872;74.622;2022-07-21T06:44:22;12.25;;;2.70;;
52798;SDS011;38667;42.872;74.622;2022-07-21T06:46:49;6.70;;;3.20;;
52798;SDS011;38667;42.872;74.622;2022-07-21T06:49:16;9.05;;;2.80;;
52798;SDS011;38667;42.872;74.622;2022-07-21T06:51:42;6.78;;;2.80;;
52798;SDS011;38667;42.872;74.622;2022-07-21T06:54:08;5.68;;;2.70;;
52798;SDS011;38667;42.872;74.622;2022-07-21T06:56:35;9.63;;;2.40;;
52798;SDS011;38667;42.872;74.622;2022-07-21T06:59:01;6.47;;;2.53;;
52798;SDS011;38667;42.872;74.622;2022-07-21T07:01:27;8.30;;;2.50;;
52798;SDS011;38667;42.872;74.622;2022-07-21T07:03:55;4.93;;;2.25;;
52798;SDS011;38667;42.872;74.622;2022-07-21T07:06:21;6.53;;;2.47;;
52798;SDS011;38667;42.872;74.622;2022-07-21T07:08:47;4.03;;;2.50;;
52798;SDS011;38667;42.872;74.622;2022-07-21T07:11:14;5.05;;;2.50;;
52798;SDS011;38667;42.872;74.622;2022-07-21T07:13:40;6.32;;;2.45;;
52798;SDS011;38667;42.872;74.622;2022-07-21T07:16:06;6.88;;;2.97;;
52798;SDS011;38667;42.872;74.622;2022-07-21T07:18:33;5.35;;;2.70;;
52798;SDS011;38667;42.872;74.622;2022-07-21T07:21:00;7.85;;;2.03;;
52798;SDS011;38667;42.872;74.622;2022-07-21T07:23:27;6.63;;;3.03;;
52798;SDS011;38667;42.872;74.622;2022-07-21T07:25:53;5.43;;;2.55;;
52798;SDS011;38667;42.872;74.622;2022-07-21T07:28:19;9.38;;;3.15;;
52798;SDS011;38667;42.872;74.622;2022-07-21T07:30:46;6.50;;;2.50;;
52798;SDS011;38667;42.872;74.622;2022-07-21T07:33:12;7.70;;;2.97;;
52798;SDS011;38667;42.872;74.622;2022-07-21T07:35:38;7.90;;;4.47;;
52798;SDS011;38667;42.872;74.622;2022-07-21T07:38:06;6.53;;;2.53;;
52798;SDS011;38667;42.872;74.622;2022-07-21T07:40:32;6.80;;;2.50;;
52798;SDS011;38667;42.872;74.622;2022-07-21T07:42:59;8.73;;;2.90;;
52798;SDS011;38667;42.872;74.622;2022-07-21T07:45:25;7.45;;;2.75;;
52798;SDS011;38667;42.872;74.622;2022-07-21T07:47:52;4.75;;;2.47;;
52798;SDS011;38667;42.872;74.622;2022-07-21T07:50:18;7.22;;;2.50;;
52798;SDS011;38667;42.872;74.622;2022-07-21T07:52:44;4.43;;;2.33;;
52798;SDS011;38667;42.872;74.622;2022-07-21T07:55:12;11.27;;;2.25;;
52798;SDS011;38667;42.872;74.622;2022-07-21T07:57:39;3.13;;;2.13;;
52798;SDS011;38667;42.872;74.622;2022-07-21T08:00:07;3.92;;;2.15;;
52798;SDS011;38667;42.872;74.622;2022-07-21T08:02:37;3.85;;;2.30;;
52798;SDS011;38667;42.872;74.622;2022-07-21T08:05:04;5.75;;;2.60;;
52798;SDS011;38667;42.872;74.622;2022-07-21T08:07:31;4.15;;;2.05;;
52798;SDS011;38667;42.872;74.622;2022-07-21T08:09:57;9.27;;;2.17;;
52798;SDS011;38667;42.872;74.622;2022-07-21T08:12:25;7.75;;;2.63;;
52798;SDS011;38667;42.872;74.622;2022-07-21T08:14:51;5.35;;;2.90;;
52798;SDS011;38667;42.872;74.622;2022-07-21T08:17:18;6.28;;;3.15;;
52798;SDS011;38667;42.872;74.622;2022-07-21T08:19:44;9.13;;;3.20;;
52798;SDS011;38667;42.872;74.622;2022-07-21T08:22:10;6.60;;;2.50;;
52798;SDS011;38667;42.872;74.622;2022-07-21T08:24:37;6.65;;;2.60;;
52798;SDS011;38667;42.872;74.622;2022-07-21T08:27:03;6.03;;;2.78;;
52798;SDS011;38667;42.872;74.622;2022-07-21T08:29:31;6.63;;;2.30;;
52798;SDS011;38667;42.872;74.622;2022-07-21T08:31:57;5.85;;;2.10;;
52798;SDS011;38667;42.872;74.622;2022-07-21T08:34:24;4.40;;;2.30;;
52798;SDS011;38667;42.872;74.622;2022-07-21T08:36:50;4.00;;;2.08;;
52798;SDS011;38667;42.872;74.622;2022-07-21T08:39:16;3.88;;;2.38;;
52798;SDS011;38667;42.872;74.622;2022-07-21T08:41:43;8.90;;;2.65;;
52798;SDS011;38667;42.872;74.622;2022-07-21T08:44:09;6.10;;;2.13;;
52798;SDS011;38667;42.872;74.622;2022-07-21T08:46:38;8.38;;;2.22;;
52798;SDS011;38667;42.872;74.622;2022-07-21T08:49:06;9.57;;;2.55;;
52798;SDS011;38667;42.872;74.622;2022-07-21T08:51:33;4.65;;;2.10;;
52798;SDS011;38667;42.872;74.622;2022-07-21T08:54:01;5.45;;;2.20;;
52798;SDS011;38667;42.872;74.622;2022-07-21T08:56:28;8.38;;;2.40;;
52798;SDS011;38667;42.872;74.622;2022-07-21T08:58:54;4.32;;;2.50;;
52798;SDS011;38667;42.872;74.622;2022-07-21T09:01:21;7.53;;;2.38;;
52798;SDS011;38667;42.872;74.622;2022-07-21T09:03:49;12.85;;;2.17;;
52798;SDS011;38667;42.872;74.622;2022-07-21T09:06:16;3.85;;;2.17;;
52798;SDS011;38667;42.872;74.622;2022-07-21T09:08:42;9.93;;;2.40;;
52798;SDS011;38667;42.872;74.622;2022-07-21T09:11:10;6.45;;;2.63;;
52798;SDS011;38667;42.872;74.622;2022-07-21T09:13:38;6.05;;;2.42;;
52798;SDS011;38667;42.872;74.622;2022-07-21T09:16:06;6.38;;;2.70;;
52798;SDS011;38667;42.872;74.622;2022-07-21T09:18:33;5.85;;;1.80;;
52798;SDS011;38667;42.872;74.622;2022-07-21T09:21:02;10.00;;;2.38;;
52798;SDS011;38667;42.872;74.622;2022-07-21T09:23:28;8.05;;;2.60;;
52798;SDS011;38667;42.872;74.622;2022-07-21T09:25:55;6.68;;;3.17;;
52798;SDS011;38667;42.872;74.622;2022-07-21T09:28:23;4.85;;;2.60;;
52798;SDS011;38667;42.872;74.622;2022-07-21T09:30:52;7.65;;;2.72;;
52798;SDS011;38667;42.872;74.622;2022-07-21T09:33:24;6.57;;;2.60;;
52798;SDS011;38667;42.872;74.622;2022-07-21T09:35:56;6.63;;;2.67;;
52798;SDS011;38667;42.872;74.622;2022-07-21T09:38:26;6.63;;;2.85;;
52798;SDS011;38667;42.872;74.622;2022-07-21T09:40:53;6.38;;;2.90;;
52798;SDS011;38667;42.872;74.622;2022-07-21T09:43:33;5.97;;;2.33;;
52798;SDS011;38667;42.872;74.622;2022-07-21T09:46:03;7.88;;;2.47;;
52798;SDS011;38667;42.872;74.622;2022-07-21T09:48:30;3.85;;;2.05;;
52798;SDS011;38667;42.872;74.622;2022-07-21T09:50:57;4.72;;;2.20;;
52798;SDS011;38667;42.872;74.622;2022-07-21T09:53:56;6.15;;;2.58;;
52798;SDS011;38667;42.872;74.622;2022-07-21T09:56:24;6.05;;;2.05;;
52798;SDS011;38667;42.872;74.622;2022-07-21T09:58:53;5.25;;;2.20;;
52798;SDS011;38667;42.872;74.622;2022-07-21T10:01:21;3.55;;;2.40;;
52798;SDS011;38667;42.872;74.622;2022-07-21T10:03:48;7.88;;;2.42;;
52798;SDS011;38667;42.872;74.622;2022-07-21T10:06:16;3.60;;;2.28;;
52798;SDS011;38667;42.872;74.622;2022-07-21T10:08:44;7.88;;;2.15;;
52798;SDS011;38667;42.872;74.622;2022-07-21T10:11:12;7.05;;;2.10;;
52798;SDS011;38667;42.872;74.622;2022-07-21T10:13:39;4.18;;;2.15;;
52798;SDS011;38667;42.872;74.622;2022-07-21T10:16:05;9.30;;;2.30;;
52798;SDS011;38667;42.872;74.622;2022-07-21T10:18:35;5.50;;;2.35;;
52798;SDS011;38667;42.872;74.622;2022-07-21T10:21:10;3.30;;;1.98;;
52798;SDS011;38667;42.872;74.622;2022-07-21T10:23:47;4.47;;;2.60;;
52798;SDS011;38667;42.872;74.622;2022-07-21T10:26:19;5.03;;;2.42;;
52798;SDS011;38667;42.872;74.622;2022-07-21T10:28:45;7.38;;;2.80;;
52798;SDS011;38667;42.872;74.622;2022-07-21T10:31:13;6.82;;;2.70;;
52798;SDS011;38667;42.872;74.622;2022-07-21T10:33:55;3.65;;;1.75;;
52798;SDS011;38667;42.872;74.622;2022-07-21T10:36:41;5.35;;;2.40;;
52798;SDS011;38667;42.872;74.622;2022-07-21T10:41:55;5.63;;;2.70;;
52798;SDS011;38667;42.872;74.622;2022-07-21T10:44:38;6.03;;;1.83;;
52798;SDS011;38667;42.872;74.622;2022-07-21T10:47:12;8.38;;;2.25;;
52798;SDS011;38667;42.872;74.622;2022-07-21T10:49:45;5.70;;;2.10;;
52798;SDS011;38667;42.872;74.622;2022-07-21T10:55:23;4.70;;;1.85;;
52798;SDS011;38667;42.872;74.622;2022-07-21T11:00:37;6.68;;;1.63;;
52798;SDS011;38667;42.872;74.622;2022-07-21T11:03:04;3.70;;;1.50;;
52798;SDS011;38667;42.872;74.622;2022-07-21T11:08:38;3.63;;;1.67;;
52798;SDS011;38667;42.872;74.622;2022-07-21T11:11:08;2.55;;;1.63;;
52798;SDS011;38667;42.872;74.622;2022-07-21T11:19:34;3.10;;;1.27;;
52798;SDS011;38667;42.872;74.622;2022-07-21T11:22:02;2.65;;;1.40;;
52798;SDS011;38667;42.872;74.622;2022-07-21T11:24:30;4.50;;;1.17;;
52798;SDS011;38667;42.872;74.622;2022-07-21T11:26:58;4.90;;;1.95;;
52798;SDS011;38667;42.872;74.622;2022-07-21T11:29:27;3.03;;;2.35;;
52798;SDS011;38667;42.872;74.622;2022-07-21T11:31:54;5.05;;;2.15;;
52798;SDS011;38667;42.872;74.622;2022-07-21T11:34:20;4.10;;;1.92;;
52798;SDS011;38667;42.872;74.622;2022-07-21T11:36:46;5.20;;;2.40;;
52798;SDS011;38667;42.872;74.622;2022-07-21T11:39:13;7.38;;;3.30;;
52798;SDS011;38667;42.872;74.622;2022-07-21T11:41:41;6.45;;;2.60;;
52798;SDS011;38667;42.872;74.622;2022-07-21T11:44:08;7.28;;;3.30;;
52798;SDS011;38667;42.872;74.622;2022-07-21T11:46:46;4.75;;;2.17;;
52798;SDS011;38667;42.872;74.622;2022-07-21T11:49:14;3.45;;;2.67;;
52798;SDS011;38667;42.872;74.622;2022-07-21T11:51:47;2.85;;;1.52;;
52798;SDS011;38667;42.872;74.622;2022-07-21T11:54:21;4.78;;;1.45;;
52798;SDS011;38667;42.872;74.622;2022-07-21T11:56:49;5.90;;;3.45;;
52798;SDS011;38667;42.872;74.622;2022-07-21T11:59:16;7.93;;;5.72;;
52798;SDS011;38667;42.872;74.622;2022-07-21T12:01:54;14.88;;;7.05;;
52798;SDS011;38667;42.872;74.622;2022-07-21T12:04:33;10.93;;;6.80;;
52798;SDS011;38667;42.872;74.622;2022-07-21T12:07:05;11.30;;;7.75;;
52798;SDS011;38667;42.872;74.622;2022-07-21T12:09:35;10.40;;;6.20;;
52798;SDS011;38667;42.872;74.622;2022-07-21T12:12:02;10.63;;;6.28;;
52798;SDS011;38667;42.872;74.622;2022-07-21T12:14:38;7.78;;;5.30;;
52798;SDS011;38667;42.872;74.622;2022-07-21T12:17:07;8.35;;;4.47;;
52798;SDS011;38667;42.872;74.622;2022-07-21T12:19:34;5.45;;;2.08;;
52798;SDS011;38667;42.872;74.622;2022-07-21T12:22:01;3.72;;;1.40;;
52798;SDS011;38667;42.872;74.622;2022-07-21T12:27:16;2.95;;;1.38;;
52798;SDS011;38667;42.872;74.622;2022-07-21T12:29:43;4.65;;;3.70;;
52798;SDS011;38667;42.872;74.622;2022-07-21T12:32:11;8.18;;;3.90;;
52798;SDS011;38667;42.872;74.622;2022-07-21T12:34:47;10.63;;;4.45;;
52798;SDS011;38667;42.872;74.622;2022-07-21T12:37:14;6.30;;;3.53;;
52798;SDS011;38667;42.872;74.622;2022-07-21T12:39:40;7.00;;;3.63;;
52798;SDS011;38667;42.872;74.622;2022-07-21T12:42:07;10.38;;;4.45;;
52798;SDS011;38667;42.872;74.622;2022-07-21T12:44:34;7.63;;;4.60;;
52798;SDS011;38667;42.872;74.622;2022-07-21T12:47:18;6.50;;;4.00;;
52798;SDS011;38667;42.872;74.622;2022-07-21T12:49:59;5.13;;;3.30;;
52798;SDS011;38667;42.872;74.622;2022-07-21T12:52:27;9.95;;;4.20;;
52798;SDS011;38667;42.872;74.622;2022-07-21T12:54:54;7.53;;;3.85;;
52798;SDS011;38667;42.872;74.622;2022-07-21T12:57:21;8.25;;;4.10;;
52798;SDS011;38667;42.872;74.622;2022-07-21T12:59:50;4.65;;;3.80;;
52798;SDS011;38667;42.872;74.622;2022-07-21T13:02:17;8.45;;;4.28;;
52798;SDS011;38667;42.872;74.622;2022-07-21T13:04:44;6.63;;;4.40;;
52798;SDS011;38667;42.872;74.622;2022-07-21T13:07:10;7.45;;;3.20;;
52798;SDS011;38667;42.872;74.622;2022-07-21T13:09:36;8.48;;;3.85;;
52798;SDS011;38667;42.872;74.622;2022-07-21T13:12:03;7.13;;;3.92;;
52798;SDS011;38667;42.872;74.622;2022-07-21T13:14:30;6.45;;;3.30;;
52798;SDS011;38667;42.872;74.622;2022-07-21T13:16:56;5.05;;;2.38;;
52798;SDS011;38667;42.872;74.622;2022-07-21T13:19:24;6.47;;;2.25;;
52798;SDS011;38667;42.872;74.622;2022-07-21T13:21:51;3.92;;;1.95;;
52798;SDS011;38667;42.872;74.622;2022-07-21T13:24:17;6.40;;;2.25;;
52798;SDS011;38667;42.872;74.622;2022-07-21T13:26:44;8.93;;;3.50;;
52798;SDS011;38667;42.872;74.622;2022-07-21T13:29:10;5.38;;;2.55;;
52798;SDS011;38667;42.872;74.622;2022-07-21T13:31:37;7.07;;;2.85;;
52798;SDS011;38667;42.872;74.622;2022-07-21T13:34:03;5.03;;;2.40;;
52798;SDS011;38667;42.872;74.622;2022-07-21T13:36:32;6.13;;;2.28;;
52798;SDS011;38667;42.872;74.622;2022-07-21T13:38:58;4.50;;;2.65;;
52798;SDS011;38667;42.872;74.622;2022-07-21T13:41:25;8.60;;;3.17;;
52798;SDS011;38667;42.872;74.622;2022-07-21T13:43:51;6.07;;;2.63;;
52798;SDS011;38667;42.872;74.622;2022-07-21T13:46:18;8.75;;;2.40;;
52798;SDS011;38667;42.872;74.622;2022-07-21T13:48:44;8.80;;;2.33;;
52798;SDS011;38667;42.872;74.622;2022-07-21T13:51:11;5.50;;;2.05;;
52798;SDS011;38667;42.872;74.622;2022-07-21T13:53:40;10.50;;;1.98;;
52798;SDS011;38667;42.872;74.622;2022-07-21T13:56:08;4.40;;;2.10;;
52798;SDS011;38667;42.872;74.622;2022-07-21T13:58:35;6.45;;;2.53;;
52798;SDS011;38667;42.872;74.622;2022-07-21T14:01:02;5.57;;;2.40;;
52798;SDS011;38667;42.872;74.622;2022-07-21T14:03:29;9.82;;;2.33;;
52798;SDS011;38667;42.872;74.622;2022-07-21T14:05:59;8.73;;;2.58;;
52798;SDS011;38667;42.872;74.622;2022-07-21T14:08:25;9.75;;;2.65;;
52798;SDS011;38667;42.872;74.622;2022-07-21T14:10:53;7.97;;;3.60;;
52798;SDS011;38667;42.872;74.622;2022-07-21T14:13:19;12.95;;;2.60;;
52798;SDS011;38667;42.872;74.622;2022-07-21T14:15:46;9.48;;;3.22;;
52798;SDS011;38667;42.872;74.622;2022-07-21T14:18:12;10.07;;;4.03;;
52798;SDS011;38667;42.872;74.622;2022-07-21T14:20:38;9.88;;;4.05;;
52798;SDS011;38667;42.872;74.622;2022-07-21T14:23:05;9.07;;;3.67;;
52798;SDS011;38667;42.872;74.622;2022-07-21T14:25:31;12.52;;;3.70;;
52798;SDS011;38667;42.872;74.622;2022-07-21T14:27:59;9.57;;;4.22;;
52798;SDS011;38667;42.872;74.622;2022-07-21T14:30:26;16.80;;;4.10;;
52798;SDS011;38667;42.872;74.622;2022-07-21T14:32:53;15.85;;;5.07;;
52798;SDS011;38667;42.872;74.622;2022-07-21T14:35:19;12.20;;;4.90;;
52798;SDS011;38667;42.872;74.622;2022-07-21T14:37:46;16.85;;;5.70;;
52798;SDS011;38667;42.872;74.622;2022-07-21T14:40:13;13.85;;;6.47;;
52798;SDS011;38667;42.872;74.622;2022-07-21T14:42:40;13.15;;;7.53;;
52798;SDS011;38667;42.872;74.622;2022-07-21T14:45:08;20.50;;;7.80;;
52798;SDS011;38667;42.872;74.622;2022-07-21T14:47:35;14.82;;;7.53;;
52798;SDS011;38667;42.872;74.622;2022-07-21T14:50:01;14.60;;;7.22;;